sensor_id;sensor_type;location;lat;lon;timestamp;temperature;humidity
64874;HTU21D;51367;45.204;38.576;2022-12-18T00:01:17;8.18;81.55
64874;HTU21D;51367;45.204;38.576;2022-12-18T00:03:43;8.13;81.59
64874;HTU21D;51367;45.204;38.576;2022-12-18T00:06:09;8.07;81.59
64874;HTU21D;51367;45.204;38.576;2022-12-18T00:08:36;8.05;81.64
64874;HTU21D;51367;45.204;38.576;2022-12-18T00:11:10;8.02;81.72
64874;HTU21D;51367;45.204;38.576;2022-12-18T00:13:36;7.98;81.72
64874;HTU21D;51367;45.204;38.576;2022-12-18T00:16:04;7.94;81.74
64874;HTU21D;51367;45.204;38.576;2022-12-18T00:18:31;7.90;81.75
64874;HTU21D;51367;45.204;38.576;2022-12-18T00:21:03;7.85;81.80
64874;HTU21D;51367;45.204;38.576;2022-12-18T00:23:30;7.81;81.84
64874;HTU21D;51367;45.204;38.576;2022-12-18T00:26:04;7.77;81.87
64874;HTU21D;51367;45.204;38.576;2022-12-18T00:28:31;7.73;81.88
64874;HTU21D;51367;45.204;38.576;2022-12-18T00:31:09;7.69;81.93
64874;HTU21D;51367;45.204;38.576;2022-12-18T00:33:36;7.65;81.91
64874;HTU21D;51367;45.204;38.576;2022-12-18T00:36:09;7.59;81.94
64874;HTU21D;51367;45.204;38.576;2022-12-18T00:38:35;7.54;81.98
64874;HTU21D;51367;45.204;38.576;2022-12-18T00:41:02;7.50;82.04
64874;HTU21D;51367;45.204;38.576;2022-12-18T00:43:28;7.48;82.07
64874;HTU21D;51367;45.204;38.576;2022-12-18T00:45:54;7.44;82.09
64874;HTU21D;51367;45.204;38.576;2022-12-18T00:48:20;7.41;82.10
64874;HTU21D;51367;45.204;38.576;2022-12-18T00:50:48;7.39;82.19
64874;HTU21D;51367;45.204;38.576;2022-12-18T00:53:15;7.40;82.30
64874;HTU21D;51367;45.204;38.576;2022-12-18T00:55:42;7.44;82.36
64874;HTU21D;51367;45.204;38.576;2022-12-18T00:58:09;7.49;82.39
64874;HTU21D;51367;45.204;38.576;2022-12-18T01:00:35;7.55;82.45
64874;HTU21D;51367;45.204;38.576;2022-12-18T01:03:02;7.63;82.58
64874;HTU21D;51367;45.204;38.576;2022-12-18T01:05:28;7.77;82.81
64874;HTU21D;51367;45.204;38.576;2022-12-18T01:07:55;7.93;82.87
64874;HTU21D;51367;45.204;38.576;2022-12-18T01:10:22;8.11;82.73
64874;HTU21D;51367;45.204;38.576;2022-12-18T01:12:48;8.22;82.53
64874;HTU21D;51367;45.204;38.576;2022-12-18T01:15:15;8.28;82.38
64874;HTU21D;51367;45.204;38.576;2022-12-18T01:17:42;8.33;82.34
64874;HTU21D;51367;45.204;38.576;2022-12-18T01:20:10;8.38;82.32
64874;HTU21D;51367;45.204;38.576;2022-12-18T01:22:37;8.45;82.30
64874;HTU21D;51367;45.204;38.576;2022-12-18T01:25:06;8.50;82.31
64874;HTU21D;51367;45.204;38.576;2022-12-18T01:27:33;8.59;82.38
64874;HTU21D;51367;45.204;38.576;2022-12-18T01:29:59;8.67;82.36
64874;HTU21D;51367;45.204;38.576;2022-12-18T01:32:25;8.76;82.31
64874;HTU21D;51367;45.204;38.576;2022-12-18T01:34:51;8.85;82.23
64874;HTU21D;51367;45.204;38.576;2022-12-18T01:37:17;8.92;82.21
64874;HTU21D;51367;45.204;38.576;2022-12-18T01:39:43;9.00;82.14
64874;HTU21D;51367;45.204;38.576;2022-12-18T01:42:12;9.06;82.10
64874;HTU21D;51367;45.204;38.576;2022-12-18T01:44:57;9.14;82.04
64874;HTU21D;51367;45.204;38.576;2022-12-18T01:47:49;9.18;81.97
64874;HTU21D;51367;45.204;38.576;2022-12-18T01:50:32;9.27;82.04
64874;HTU21D;51367;45.204;38.576;2022-12-18T01:53:06;9.39;81.94
64874;HTU21D;51367;45.204;38.576;2022-12-18T01:56:02;9.49;81.84
64874;HTU21D;51367;45.204;38.576;2022-12-18T02:01:25;9.62;81.60
64874;HTU21D;51367;45.204;38.576;2022-12-18T02:03:52;9.66;81.53
64874;HTU21D;51367;45.204;38.576;2022-12-18T02:06:34;9.66;81.47
64874;HTU21D;51367;45.204;38.576;2022-12-18T02:09:07;9.65;81.42
64874;HTU21D;51367;45.204;38.576;2022-12-18T02:14:28;9.55;81.36
64874;HTU21D;51367;45.204;38.576;2022-12-18T02:17:09;9.46;81.36
64874;HTU21D;51367;45.204;38.576;2022-12-18T02:19:55;9.35;81.41
64874;HTU21D;51367;45.204;38.576;2022-12-18T02:25:21;9.11;81.57
64874;HTU21D;51367;45.204;38.576;2022-12-18T02:27:52;9.02;81.62
64874;HTU21D;51367;45.204;38.576;2022-12-18T02:30:20;8.92;81.70
64874;HTU21D;51367;45.204;38.576;2022-12-18T02:32:50;8.82;81.78
64874;HTU21D;51367;45.204;38.576;2022-12-18T02:35:23;8.74;81.87
64874;HTU21D;51367;45.204;38.576;2022-12-18T02:37:53;8.65;81.94
64874;HTU21D;51367;45.204;38.576;2022-12-18T02:40:21;8.59;81.99
64874;HTU21D;51367;45.204;38.576;2022-12-18T02:42:47;8.51;82.03
64874;HTU21D;51367;45.204;38.576;2022-12-18T02:45:16;8.44;82.07
64874;HTU21D;51367;45.204;38.576;2022-12-18T02:47:45;8.37;82.09
64874;HTU21D;51367;45.204;38.576;2022-12-18T02:53:15;8.24;82.25
64874;HTU21D;51367;45.204;38.576;2022-12-18T02:56:33;8.22;82.34
64874;HTU21D;51367;45.204;38.576;2022-12-18T03:01:30;8.21;82.30
64874;HTU21D;51367;45.204;38.576;2022-12-18T03:06:57;8.21;82.30
64874;HTU21D;51367;45.204;38.576;2022-12-18T03:09:32;8.20;82.30
64874;HTU21D;51367;45.204;38.576;2022-12-18T03:12:09;8.20;82.29
64874;HTU21D;51367;45.204;38.576;2022-12-18T03:15:18;8.21;82.36
64874;HTU21D;51367;45.204;38.576;2022-12-18T03:17:56;8.24;82.33
64874;HTU21D;51367;45.204;38.576;2022-12-18T03:20:27;8.28;82.35
64874;HTU21D;51367;45.204;38.576;2022-12-18T03:23:02;8.32;82.33
64874;HTU21D;51367;45.204;38.576;2022-12-18T03:25:31;8.35;82.32
64874;HTU21D;51367;45.204;38.576;2022-12-18T03:28:00;8.39;82.32
64874;HTU21D;51367;45.204;38.576;2022-12-18T03:30:29;8.45;82.32
64874;HTU21D;51367;45.204;38.576;2022-12-18T03:33:19;8.50;82.26
64874;HTU21D;51367;45.204;38.576;2022-12-18T03:35:49;8.55;82.20
64874;HTU21D;51367;45.204;38.576;2022-12-18T03:38:17;8.57;82.16
64874;HTU21D;51367;45.204;38.576;2022-12-18T03:41:14;8.60;82.13
64874;HTU21D;51367;45.204;38.576;2022-12-18T03:44:33;8.62;82.07
64874;HTU21D;51367;45.204;38.576;2022-12-18T03:47:10;8.63;82.05
64874;HTU21D;51367;45.204;38.576;2022-12-18T03:49:59;8.66;82.04
64874;HTU21D;51367;45.204;38.576;2022-12-18T03:53:02;8.68;82.00
64874;HTU21D;51367;45.204;38.576;2022-12-18T03:55:30;8.66;81.93
64874;HTU21D;51367;45.204;38.576;2022-12-18T03:58:03;8.64;81.92
64874;HTU21D;51367;45.204;38.576;2022-12-18T04:00:44;8.62;82.01
64874;HTU21D;51367;45.204;38.576;2022-12-18T04:03:12;8.62;82.05
64874;HTU21D;51367;45.204;38.576;2022-12-18T04:05:45;8.61;82.02
64874;HTU21D;51367;45.204;38.576;2022-12-18T04:08:14;8.59;82.00
64874;HTU21D;51367;45.204;38.576;2022-12-18T04:10:44;8.56;82.04
64874;HTU21D;51367;45.204;38.576;2022-12-18T04:13:10;8.55;82.09
64874;HTU21D;51367;45.204;38.576;2022-12-18T04:15:37;8.55;82.10
64874;HTU21D;51367;45.204;38.576;2022-12-18T04:18:09;8.55;82.14
64874;HTU21D;51367;45.204;38.576;2022-12-18T04:20:39;8.53;82.11
64874;HTU21D;51367;45.204;38.576;2022-12-18T04:23:05;8.51;82.13
64874;HTU21D;51367;45.204;38.576;2022-12-18T04:25:31;8.51;82.14
64874;HTU21D;51367;45.204;38.576;2022-12-18T04:28:07;8.49;82.16
64874;HTU21D;51367;45.204;38.576;2022-12-18T04:30:34;8.48;82.17
64874;HTU21D;51367;45.204;38.576;2022-12-18T04:33:00;8.48;82.20
64874;HTU21D;51367;45.204;38.576;2022-12-18T04:35:29;8.47;82.18
64874;HTU21D;51367;45.204;38.576;2022-12-18T04:37:56;8.45;82.17
64874;HTU21D;51367;45.204;38.576;2022-12-18T04:40:22;8.42;82.18
64874;HTU21D;51367;45.204;38.576;2022-12-18T04:42:48;8.39;82.21
64874;HTU21D;51367;45.204;38.576;2022-12-18T04:45:14;8.37;82.23
64874;HTU21D;51367;45.204;38.576;2022-12-18T04:47:40;8.35;82.24
64874;HTU21D;51367;45.204;38.576;2022-12-18T04:50:06;8.32;82.25
64874;HTU21D;51367;45.204;38.576;2022-12-18T04:52:32;8.28;82.26
64874;HTU21D;51367;45.204;38.576;2022-12-18T04:54:58;8.23;82.29
64874;HTU21D;51367;45.204;38.576;2022-12-18T04:57:24;8.21;82.35
64874;HTU21D;51367;45.204;38.576;2022-12-18T04:59:50;8.19;82.36
64874;HTU21D;51367;45.204;38.576;2022-12-18T05:02:16;8.18;82.41
64874;HTU21D;51367;45.204;38.576;2022-12-18T05:04:42;8.18;82.49
64874;HTU21D;51367;45.204;38.576;2022-12-18T05:07:08;8.22;82.53
64874;HTU21D;51367;45.204;38.576;2022-12-18T05:09:34;8.26;82.55
64874;HTU21D;51367;45.204;38.576;2022-12-18T05:12:00;8.30;82.53
64874;HTU21D;51367;45.204;38.576;2022-12-18T05:14:26;8.34;82.52
64874;HTU21D;51367;45.204;38.576;2022-12-18T05:16:53;8.41;82.50
64874;HTU21D;51367;45.204;38.576;2022-12-18T05:19:19;8.45;82.46
64874;HTU21D;51367;45.204;38.576;2022-12-18T05:21:45;8.52;82.44
64874;HTU21D;51367;45.204;38.576;2022-12-18T05:24:11;8.59;82.44
64874;HTU21D;51367;45.204;38.576;2022-12-18T05:26:37;8.67;82.41
64874;HTU21D;51367;45.204;38.576;2022-12-18T05:29:03;8.76;82.35
64874;HTU21D;51367;45.204;38.576;2022-12-18T05:31:29;8.83;82.26
64874;HTU21D;51367;45.204;38.576;2022-12-18T05:33:55;8.91;82.21
64874;HTU21D;51367;45.204;38.576;2022-12-18T05:36:21;8.95;82.15
64874;HTU21D;51367;45.204;38.576;2022-12-18T05:38:47;9.03;82.13
64874;HTU21D;51367;45.204;38.576;2022-12-18T05:41:13;9.10;82.12
64874;HTU21D;51367;45.204;38.576;2022-12-18T05:43:39;9.20;82.13
64874;HTU21D;51367;45.204;38.576;2022-12-18T05:46:08;9.29;82.07
64874;HTU21D;51367;45.204;38.576;2022-12-18T05:48:34;9.40;82.04
64874;HTU21D;51367;45.204;38.576;2022-12-18T05:51:06;9.54;81.96
64874;HTU21D;51367;45.204;38.576;2022-12-18T05:53:32;9.66;81.91
64874;HTU21D;51367;45.204;38.576;2022-12-18T05:56:08;9.81;81.81
64874;HTU21D;51367;45.204;38.576;2022-12-18T05:58:34;9.96;81.74
64874;HTU21D;51367;45.204;38.576;2022-12-18T06:03:37;10.24;81.59
64874;HTU21D;51367;45.204;38.576;2022-12-18T06:06:03;10.39;81.62
64874;HTU21D;51367;45.204;38.576;2022-12-18T06:08:29;10.57;81.81
64874;HTU21D;51367;45.204;38.576;2022-12-18T06:10:55;10.79;81.92
64874;HTU21D;51367;45.204;38.576;2022-12-18T06:13:21;10.96;81.71
64874;HTU21D;51367;45.204;38.576;2022-12-18T06:15:47;11.11;81.49
64874;HTU21D;51367;45.204;38.576;2022-12-18T06:18:13;11.30;81.48
64874;HTU21D;51367;45.204;38.576;2022-12-18T06:20:39;11.47;81.25
64874;HTU21D;51367;45.204;38.576;2022-12-18T06:23:07;11.61;81.03
64874;HTU21D;51367;45.204;38.576;2022-12-18T06:25:37;11.75;80.92
64874;HTU21D;51367;45.204;38.576;2022-12-18T06:28:03;11.89;80.89
64874;HTU21D;51367;45.204;38.576;2022-12-18T06:30:29;12.04;80.71
64874;HTU21D;51367;45.204;38.576;2022-12-18T06:32:55;12.17;80.52
64874;HTU21D;51367;45.204;38.576;2022-12-18T06:35:22;12.27;80.44
64874;HTU21D;51367;45.204;38.576;2022-12-18T06:37:48;12.40;80.47
64874;HTU21D;51367;45.204;38.576;2022-12-18T06:40:14;12.53;80.39
64874;HTU21D;51367;45.204;38.576;2022-12-18T06:42:40;12.63;80.20
64874;HTU21D;51367;45.204;38.576;2022-12-18T06:45:07;12.70;80.08
64874;HTU21D;51367;45.204;38.576;2022-12-18T06:47:33;12.75;79.99
64874;HTU21D;51367;45.204;38.576;2022-12-18T06:49:59;12.90;80.43
64874;HTU21D;51367;45.204;38.576;2022-12-18T06:52:25;13.16;80.53
64874;HTU21D;51367;45.204;38.576;2022-12-18T06:54:51;13.40;80.38
64874;HTU21D;51367;45.204;38.576;2022-12-18T06:57:17;13.55;80.02
64874;HTU21D;51367;45.204;38.576;2022-12-18T06:59:43;13.68;79.93
64874;HTU21D;51367;45.204;38.576;2022-12-18T07:02:11;13.88;79.95
64874;HTU21D;51367;45.204;38.576;2022-12-18T07:04:38;13.97;79.56
64874;HTU21D;51367;45.204;38.576;2022-12-18T07:07:04;14.00;79.26
64874;HTU21D;51367;45.204;38.576;2022-12-18T07:09:30;14.04;79.12
64874;HTU21D;51367;45.204;38.576;2022-12-18T07:11:56;14.09;79.06
64874;HTU21D;51367;45.204;38.576;2022-12-18T07:14:22;14.15;79.08
64874;HTU21D;51367;45.204;38.576;2022-12-18T07:16:47;14.25;79.08
64874;HTU21D;51367;45.204;38.576;2022-12-18T07:19:13;14.35;79.17
64874;HTU21D;51367;45.204;38.576;2022-12-18T07:21:39;14.50;79.21
64874;HTU21D;51367;45.204;38.576;2022-12-18T07:24:06;14.64;79.21
64874;HTU21D;51367;45.204;38.576;2022-12-18T07:26:32;14.80;79.15
64874;HTU21D;51367;45.204;38.576;2022-12-18T07:28:58;14.95;79.02
64874;HTU21D;51367;45.204;38.576;2022-12-18T07:31:25;15.14;78.75
64874;HTU21D;51367;45.204;38.576;2022-12-18T07:33:52;15.37;78.77
64874;HTU21D;51367;45.204;38.576;2022-12-18T07:36:19;15.57;78.64
64874;HTU21D;51367;45.204;38.576;2022-12-18T07:38:48;15.72;78.24
64874;HTU21D;51367;45.204;38.576;2022-12-18T07:41:15;15.88;78.12
64874;HTU21D;51367;45.204;38.576;2022-12-18T07:43:41;16.04;77.75
64874;HTU21D;51367;45.204;38.576;2022-12-18T07:46:09;16.13;77.31
64874;HTU21D;51367;45.204;38.576;2022-12-18T07:48:35;16.18;76.94
64874;HTU21D;51367;45.204;38.576;2022-12-18T07:51:03;16.20;76.68
64874;HTU21D;51367;45.204;38.576;2022-12-18T07:53:30;16.30;76.73
64874;HTU21D;51367;45.204;38.576;2022-12-18T07:56:01;16.46;76.70
64874;HTU21D;51367;45.204;38.576;2022-12-18T07:58:29;16.69;76.52
64874;HTU21D;51367;45.204;38.576;2022-12-18T08:01:05;16.89;76.06
64874;HTU21D;51367;45.204;38.576;2022-12-18T08:03:32;17.10;75.89
64874;HTU21D;51367;45.204;38.576;2022-12-18T08:06:02;17.25;75.57
64874;HTU21D;51367;45.204;38.576;2022-12-18T08:08:29;17.35;75.20
64874;HTU21D;51367;45.204;38.576;2022-12-18T08:10:55;17.40;74.89
64874;HTU21D;51367;45.204;38.576;2022-12-18T08:13:21;17.38;74.37
64874;HTU21D;51367;45.204;38.576;2022-12-18T08:15:56;17.36;74.09
64874;HTU21D;51367;45.204;38.576;2022-12-18T08:18:22;17.26;74.05
64874;HTU21D;51367;45.204;38.576;2022-12-18T08:20:48;17.18;74.00
64874;HTU21D;51367;45.204;38.576;2022-12-18T08:23:14;17.15;73.95
64874;HTU21D;51367;45.204;38.576;2022-12-18T08:25:40;17.13;73.85
64874;HTU21D;51367;45.204;38.576;2022-12-18T08:28:06;17.05;73.57
64874;HTU21D;51367;45.204;38.576;2022-12-18T08:30:32;16.92;73.57
64874;HTU21D;51367;45.204;38.576;2022-12-18T08:32:58;16.79;73.54
64874;HTU21D;51367;45.204;38.576;2022-12-18T08:35:24;16.67;73.54
64874;HTU21D;51367;45.204;38.576;2022-12-18T08:37:50;16.57;73.55
64874;HTU21D;51367;45.204;38.576;2022-12-18T08:40:16;16.46;73.54
64874;HTU21D;51367;45.204;38.576;2022-12-18T08:42:42;16.31;73.56
64874;HTU21D;51367;45.204;38.576;2022-12-18T08:45:26;16.12;73.77
64874;HTU21D;51367;45.204;38.576;2022-12-18T08:47:53;16.04;74.06
64874;HTU21D;51367;45.204;38.576;2022-12-18T08:50:19;16.00;74.08
64874;HTU21D;51367;45.204;38.576;2022-12-18T08:52:45;15.96;74.09
64874;HTU21D;51367;45.204;38.576;2022-12-18T08:55:11;15.91;73.90
64874;HTU21D;51367;45.204;38.576;2022-12-18T08:57:37;15.82;74.05
64874;HTU21D;51367;45.204;38.576;2022-12-18T09:00:04;15.78;74.11
64874;HTU21D;51367;45.204;38.576;2022-12-18T09:02:30;15.75;74.10
64874;HTU21D;51367;45.204;38.576;2022-12-18T09:04:56;15.70;74.04
64874;HTU21D;51367;45.204;38.576;2022-12-18T09:07:22;15.65;74.00
64874;HTU21D;51367;45.204;38.576;2022-12-18T09:09:48;15.58;73.96
64874;HTU21D;51367;45.204;38.576;2022-12-18T09:12:14;15.51;73.98
64874;HTU21D;51367;45.204;38.576;2022-12-18T09:14:40;15.45;74.04
64874;HTU21D;51367;45.204;38.576;2022-12-18T09:17:05;15.39;74.08
64874;HTU21D;51367;45.204;38.576;2022-12-18T09:19:31;15.34;74.10
64874;HTU21D;51367;45.204;38.576;2022-12-18T09:21:57;15.32;74.15
64874;HTU21D;51367;45.204;38.576;2022-12-18T09:24:23;15.29;74.18
64874;HTU21D;51367;45.204;38.576;2022-12-18T09:26:53;15.24;74.11
64874;HTU21D;51367;45.204;38.576;2022-12-18T09:29:20;15.19;74.08
64874;HTU21D;51367;45.204;38.576;2022-12-18T09:31:46;15.13;74.26
64874;HTU21D;51367;45.204;38.576;2022-12-18T09:34:12;15.07;74.27
64874;HTU21D;51367;45.204;38.576;2022-12-18T09:36:39;14.99;74.47
64874;HTU21D;51367;45.204;38.576;2022-12-18T09:39:05;14.97;74.60
64874;HTU21D;51367;45.204;38.576;2022-12-18T09:41:53;14.95;74.67
64874;HTU21D;51367;45.204;38.576;2022-12-18T09:44:39;14.89;74.67
64874;HTU21D;51367;45.204;38.576;2022-12-18T09:47:23;14.85;74.76
64874;HTU21D;51367;45.204;38.576;2022-12-18T09:50:03;14.81;74.84
64874;HTU21D;51367;45.204;38.576;2022-12-18T09:52:33;14.71;75.02
64874;HTU21D;51367;45.204;38.576;2022-12-18T09:58:10;14.41;75.60
64874;HTU21D;51367;45.204;38.576;2022-12-18T10:00:42;14.28;75.89
64874;HTU21D;51367;45.204;38.576;2022-12-18T10:03:15;14.19;76.07
64874;HTU21D;51367;45.204;38.576;2022-12-18T10:05:43;14.18;76.15
64874;HTU21D;51367;45.204;38.576;2022-12-18T10:10:56;14.13;76.22
64874;HTU21D;51367;45.204;38.576;2022-12-18T10:18:50;14.09;76.34
64874;HTU21D;51367;45.204;38.576;2022-12-18T10:21:23;14.11;76.35
64874;HTU21D;51367;45.204;38.576;2022-12-18T10:26:56;14.13;76.39
64874;HTU21D;51367;45.204;38.576;2022-12-18T10:29:27;14.13;76.43
64874;HTU21D;51367;45.204;38.576;2022-12-18T10:31:53;14.13;76.49
64874;HTU21D;51367;45.204;38.576;2022-12-18T10:34:19;14.14;76.56
64874;HTU21D;51367;45.204;38.576;2022-12-18T10:36:47;14.14;76.63
64874;HTU21D;51367;45.204;38.576;2022-12-18T10:39:19;14.13;76.70
64874;HTU21D;51367;45.204;38.576;2022-12-18T10:41:50;14.14;76.76
64874;HTU21D;51367;45.204;38.576;2022-12-18T10:46:54;14.15;76.91
64874;HTU21D;51367;45.204;38.576;2022-12-18T10:49:26;14.15;77.00
64874;HTU21D;51367;45.204;38.576;2022-12-18T10:52:05;14.15;77.15
64874;HTU21D;51367;45.204;38.576;2022-12-18T10:54:32;14.19;77.22
64874;HTU21D;51367;45.204;38.576;2022-12-18T10:57:16;14.20;77.40
64874;HTU21D;51367;45.204;38.576;2022-12-18T10:59:54;14.21;77.47
64874;HTU21D;51367;45.204;38.576;2022-12-18T11:02:38;14.18;77.60
64874;HTU21D;51367;45.204;38.576;2022-12-18T11:05:29;14.14;77.72
64874;HTU21D;51367;45.204;38.576;2022-12-18T11:07:57;14.09;77.82
64874;HTU21D;51367;45.204;38.576;2022-12-18T11:10:32;14.06;78.05
64874;HTU21D;51367;45.204;38.576;2022-12-18T11:13:23;14.03;78.30
64874;HTU21D;51367;45.204;38.576;2022-12-18T11:15:50;14.04;78.35
64874;HTU21D;51367;45.204;38.576;2022-12-18T11:18:26;14.00;78.49
64874;HTU21D;51367;45.204;38.576;2022-12-18T11:20:58;13.98;78.56
64874;HTU21D;51367;45.204;38.576;2022-12-18T11:23:25;13.94;78.63
64874;HTU21D;51367;45.204;38.576;2022-12-18T11:25:59;13.90;78.73
64874;HTU21D;51367;45.204;38.576;2022-12-18T11:34:02;13.78;78.97
64874;HTU21D;51367;45.204;38.576;2022-12-18T11:36:39;13.75;79.02
64874;HTU21D;51367;45.204;38.576;2022-12-18T11:39:36;13.70;79.11
64874;HTU21D;51367;45.204;38.576;2022-12-18T11:47:25;13.55;79.27
64874;HTU21D;51367;45.204;38.576;2022-12-18T11:49:55;13.49;79.33
64874;HTU21D;51367;45.204;38.576;2022-12-18T11:52:37;13.39;79.47
64874;HTU21D;51367;45.204;38.576;2022-12-18T11:55:15;13.31;79.58
64874;HTU21D;51367;45.204;38.576;2022-12-18T12:00:31;13.07;79.80
64874;HTU21D;51367;45.204;38.576;2022-12-18T12:25:02;12.19;80.58
64874;HTU21D;51367;45.204;38.576;2022-12-18T12:30:35;11.98;80.91
64874;HTU21D;51367;45.204;38.576;2022-12-18T12:35:56;11.82;81.03
64874;HTU21D;51367;45.204;38.576;2022-12-18T12:38:28;11.73;81.04
64874;HTU21D;51367;45.204;38.576;2022-12-18T12:41:02;11.63;81.04
64874;HTU21D;51367;45.204;38.576;2022-12-18T12:43:42;11.55;81.13
64874;HTU21D;51367;45.204;38.576;2022-12-18T12:46:12;11.44;81.43
64874;HTU21D;51367;45.204;38.576;2022-12-18T12:51:32;11.19;81.83
64874;HTU21D;51367;45.204;38.576;2022-12-18T12:54:01;11.04;81.99
64874;HTU21D;51367;45.204;38.576;2022-12-18T12:59:31;10.82;82.24
64874;HTU21D;51367;45.204;38.576;2022-12-18T13:13:04;10.49;82.36
64874;HTU21D;51367;45.204;38.576;2022-12-18T13:15:46;10.43;82.37
64874;HTU21D;51367;45.204;38.576;2022-12-18T13:18:21;10.40;82.36
64874;HTU21D;51367;45.204;38.576;2022-12-18T13:21:15;10.37;82.33
64874;HTU21D;51367;45.204;38.576;2022-12-18T13:23:37;10.33;82.30
64874;HTU21D;51367;45.204;38.576;2022-12-18T13:32:00;10.13;82.40
64874;HTU21D;51367;45.204;38.576;2022-12-18T13:34:15;10.04;82.51
64874;HTU21D;51367;45.204;38.576;2022-12-18T13:36:42;9.98;82.57
64874;HTU21D;51367;45.204;38.576;2022-12-18T13:41:41;9.85;82.84
64874;HTU21D;51367;45.204;38.576;2022-12-18T13:44:33;9.71;82.90
64874;HTU21D;51367;45.204;38.576;2022-12-18T13:46:59;9.53;83.23
64874;HTU21D;51367;45.204;38.576;2022-12-18T13:49:37;9.41;83.37
64874;HTU21D;51367;45.204;38.576;2022-12-18T13:52:22;9.34;83.66
64874;HTU21D;51367;45.204;38.576;2022-12-18T13:54:57;9.26;83.69
64874;HTU21D;51367;45.204;38.576;2022-12-18T13:57:30;9.21;84.03
64874;HTU21D;51367;45.204;38.576;2022-12-18T13:59:57;9.10;83.83
64874;HTU21D;51367;45.204;38.576;2022-12-18T14:02:26;9.02;84.11
64874;HTU21D;51367;45.204;38.576;2022-12-18T14:04:53;8.93;84.17
64874;HTU21D;51367;45.204;38.576;2022-12-18T14:07:28;8.88;84.13
64874;HTU21D;51367;45.204;38.576;2022-12-18T14:09:57;8.90;84.13
64874;HTU21D;51367;45.204;38.576;2022-12-18T14:12:31;8.94;84.13
64874;HTU21D;51367;45.204;38.576;2022-12-18T14:17:52;8.90;83.87
64874;HTU21D;51367;45.204;38.576;2022-12-18T14:20:18;8.90;83.81
64874;HTU21D;51367;45.204;38.576;2022-12-18T14:22:46;8.91;83.74
64874;HTU21D;51367;45.204;38.576;2022-12-18T14:25:14;8.90;83.67
64874;HTU21D;51367;45.204;38.576;2022-12-18T14:27:46;8.87;83.61
64874;HTU21D;51367;45.204;38.576;2022-12-18T14:30:33;8.87;83.53
64874;HTU21D;51367;45.204;38.576;2022-12-18T14:33:11;8.85;83.46
64874;HTU21D;51367;45.204;38.576;2022-12-18T14:35:42;8.80;83.41
64874;HTU21D;51367;45.204;38.576;2022-12-18T14:40:36;8.73;83.42
64874;HTU21D;51367;45.204;38.576;2022-12-18T14:43:02;8.68;83.42
64874;HTU21D;51367;45.204;38.576;2022-12-18T14:45:39;8.66;83.42
64874;HTU21D;51367;45.204;38.576;2022-12-18T14:48:09;8.62;83.37
64874;HTU21D;51367;45.204;38.576;2022-12-18T14:50:37;8.55;83.36
64874;HTU21D;51367;45.204;38.576;2022-12-18T14:53:04;8.47;83.42
64874;HTU21D;51367;45.204;38.576;2022-12-18T14:55:32;8.41;83.54
64874;HTU21D;51367;45.204;38.576;2022-12-18T14:57:58;8.42;83.56
64874;HTU21D;51367;45.204;38.576;2022-12-18T15:00:25;8.38;83.55
64874;HTU21D;51367;45.204;38.576;2022-12-18T15:02:54;8.35;83.52
64874;HTU21D;51367;45.204;38.576;2022-12-18T15:05:31;8.31;83.49
64874;HTU21D;51367;45.204;38.576;2022-12-18T15:07:59;8.27;83.46
64874;HTU21D;51367;45.204;38.576;2022-12-18T15:10:31;8.20;83.47
64874;HTU21D;51367;45.204;38.576;2022-12-18T15:18:16;7.89;83.78
64874;HTU21D;51367;45.204;38.576;2022-12-18T15:26:03;7.68;83.91
64874;HTU21D;51367;45.204;38.576;2022-12-18T15:33:41;7.59;83.99
64874;HTU21D;51367;45.204;38.576;2022-12-18T15:36:13;7.60;83.96
64874;HTU21D;51367;45.204;38.576;2022-12-18T15:38:41;7.59;83.91
64874;HTU21D;51367;45.204;38.576;2022-12-18T15:41:14;7.57;83.87
64874;HTU21D;51367;45.204;38.576;2022-12-18T15:43:42;7.55;83.81
64874;HTU21D;51367;45.204;38.576;2022-12-18T15:46:12;7.53;83.81
64874;HTU21D;51367;45.204;38.576;2022-12-18T15:48:43;7.53;83.80
64874;HTU21D;51367;45.204;38.576;2022-12-18T15:51:17;7.52;83.75
64874;HTU21D;51367;45.204;38.576;2022-12-18T15:53:44;7.48;83.69
64874;HTU21D;51367;45.204;38.576;2022-12-18T15:56:12;7.46;83.65
64874;HTU21D;51367;45.204;38.576;2022-12-18T15:58:57;7.42;83.64
64874;HTU21D;51367;45.204;38.576;2022-12-18T16:01:27;7.39;83.62
64874;HTU21D;51367;45.204;38.576;2022-12-18T16:03:54;7.37;83.68
64874;HTU21D;51367;45.204;38.576;2022-12-18T16:06:23;7.35;83.66
64874;HTU21D;51367;45.204;38.576;2022-12-18T16:08:50;7.34;83.64
64874;HTU21D;51367;45.204;38.576;2022-12-18T16:11:28;7.32;83.64
64874;HTU21D;51367;45.204;38.576;2022-12-18T16:14:20;7.25;83.60
64874;HTU21D;51367;45.204;38.576;2022-12-18T16:16:56;7.17;83.67
64874;HTU21D;51367;45.204;38.576;2022-12-18T16:19:22;7.11;83.74
64874;HTU21D;51367;45.204;38.576;2022-12-18T16:21:50;7.08;83.81
64874;HTU21D;51367;45.204;38.576;2022-12-18T16:24:35;7.07;83.84
64874;HTU21D;51367;45.204;38.576;2022-12-18T16:27:02;7.02;83.83
64874;HTU21D;51367;45.204;38.576;2022-12-18T16:29:28;6.99;83.84
64874;HTU21D;51367;45.204;38.576;2022-12-18T16:31:59;6.97;83.84
64874;HTU21D;51367;45.204;38.576;2022-12-18T16:34:27;6.95;83.84
64874;HTU21D;51367;45.204;38.576;2022-12-18T16:36:58;6.93;83.83
64874;HTU21D;51367;45.204;38.576;2022-12-18T16:39:25;6.89;83.80
64874;HTU21D;51367;45.204;38.576;2022-12-18T16:41:51;6.88;83.81
64874;HTU21D;51367;45.204;38.576;2022-12-18T16:44:18;6.86;83.80
64874;HTU21D;51367;45.204;38.576;2022-12-18T16:46:44;6.85;83.80
64874;HTU21D;51367;45.204;38.576;2022-12-18T16:49:14;6.84;83.78
64874;HTU21D;51367;45.204;38.576;2022-12-18T16:51:41;6.81;83.74
64874;HTU21D;51367;45.204;38.576;2022-12-18T16:54:07;6.79;83.77
64874;HTU21D;51367;45.204;38.576;2022-12-18T16:56:34;6.75;83.78
64874;HTU21D;51367;45.204;38.576;2022-12-18T16:59:01;6.71;83.78
64874;HTU21D;51367;45.204;38.576;2022-12-18T17:01:29;6.71;83.78
64874;HTU21D;51367;45.204;38.576;2022-12-18T17:04:02;6.68;83.76
64874;HTU21D;51367;45.204;38.576;2022-12-18T17:06:33;6.64;83.74
64874;HTU21D;51367;45.204;38.576;2022-12-18T17:09:05;6.60;83.76
64874;HTU21D;51367;45.204;38.576;2022-12-18T17:11:33;6.58;83.78
64874;HTU21D;51367;45.204;38.576;2022-12-18T17:14:06;6.56;83.78
64874;HTU21D;51367;45.204;38.576;2022-12-18T17:16:32;6.53;83.77
64874;HTU21D;51367;45.204;38.576;2022-12-18T17:18:59;6.51;83.78
64874;HTU21D;51367;45.204;38.576;2022-12-18T17:21:26;6.46;83.79
64874;HTU21D;51367;45.204;38.576;2022-12-18T17:23:54;6.43;83.85
64874;HTU21D;51367;45.204;38.576;2022-12-18T17:26:21;6.40;83.86
64874;HTU21D;51367;45.204;38.576;2022-12-18T17:28:47;6.39;83.87
64874;HTU21D;51367;45.204;38.576;2022-12-18T17:31:15;6.37;83.86
64874;HTU21D;51367;45.204;38.576;2022-12-18T17:33:42;6.36;83.85